createdAt,value
2023-03-11T00:00:56.287Z,1.40
2023-03-11T00:03:24.067Z,1.10
2023-03-11T00:05:52.717Z,1.30
2023-03-11T00:08:22.692Z,0.93
2023-03-11T00:10:54.352Z,1.00
2023-03-11T00:13:21.620Z,1.00
2023-03-11T00:15:50.652Z,1.20
2023-03-11T00:18:17.782Z,0.67
2023-03-11T00:20:46.342Z,0.90
2023-03-11T00:23:14.814Z,0.90
2023-03-11T00:25:44.296Z,0.70
2023-03-11T00:28:12.024Z,1.10
2023-03-11T00:30:40.624Z,0.60
2023-03-11T00:33:08.558Z,0.73
2023-03-11T00:35:36.275Z,0.80
2023-03-11T00:38:08.415Z,0.83
2023-03-11T00:40:36.345Z,0.60
2023-03-11T00:43:04.017Z,0.53
2023-03-11T00:45:31.821Z,0.50
2023-03-11T00:47:58.749Z,0.63
2023-03-11T00:50:32.405Z,0.50
2023-03-11T00:52:59.763Z,0.63
2023-03-11T00:55:32.213Z,0.80
2023-03-11T00:58:03.272Z,0.67
2023-03-11T01:00:37.484Z,0.67
2023-03-11T01:03:04.379Z,0.80
2023-03-11T01:05:33.847Z,0.70
2023-03-11T01:08:03.087Z,0.50
2023-03-11T01:10:31.410Z,0.80
2023-03-11T01:12:58.296Z,0.90
2023-03-11T01:15:32.025Z,0.70
2023-03-11T01:17:59.320Z,0.73
2023-03-11T01:20:26.310Z,0.80
2023-03-11T01:22:53.107Z,0.50
2023-03-11T01:25:22.322Z,0.77
2023-03-11T01:27:50.680Z,0.50
2023-03-11T01:30:23.855Z,0.50
2023-03-11T01:32:52.298Z,0.63
2023-03-11T01:35:21.314Z,0.60
2023-03-11T01:37:48.137Z,0.60
2023-03-11T01:40:24.271Z,1.10
2023-03-11T01:42:51.830Z,0.70
2023-03-11T01:45:36.434Z,0.73
2023-03-11T01:48:04.063Z,0.67
2023-03-11T01:50:35.971Z,0.70
2023-03-11T01:53:04.632Z,0.80
2023-03-11T01:55:32.744Z,0.73
2023-03-11T01:58:03.412Z,0.90
2023-03-11T02:00:30.281Z,0.70
2023-03-11T02:03:00.532Z,0.80
2023-03-11T02:05:28.052Z,0.73
2023-03-11T02:07:56.511Z,0.70
2023-03-11T02:10:27.682Z,0.90
2023-03-11T02:12:55.521Z,0.63
2023-03-11T02:15:24.440Z,0.97
2023-03-11T02:17:52.725Z,0.80
2023-03-11T02:20:32.455Z,0.80
2023-03-11T02:23:01.304Z,1.13
2023-03-11T02:25:53.937Z,0.90
2023-03-11T02:28:22.046Z,1.00
2023-03-11T02:30:50.605Z,1.10
2023-03-11T02:33:19.371Z,1.00
2023-03-11T02:35:47.365Z,1.27
2023-03-11T02:38:14.464Z,1.10
2023-03-11T02:40:49.725Z,0.87
2023-03-11T02:43:23.990Z,1.03
2023-03-11T02:45:50.913Z,1.20
2023-03-11T02:48:18.908Z,1.00
2023-03-11T02:50:47.253Z,1.10
2023-03-11T02:53:15.732Z,1.20
2023-03-11T02:55:43.022Z,1.30
2023-03-11T02:58:10.304Z,1.20
2023-03-11T03:00:37.467Z,0.90
2023-03-11T03:03:07.545Z,1.00
2023-03-11T03:05:34.271Z,1.10
2023-03-11T03:08:02.951Z,1.30
2023-03-11T03:10:30.184Z,1.10
2023-03-11T03:12:58.001Z,1.03
2023-03-11T03:15:25.916Z,1.07
2023-03-11T03:17:52.653Z,1.20
2023-03-11T03:20:22.675Z,1.30
2023-03-11T03:22:53.004Z,1.00
2023-03-11T03:25:22.770Z,0.93
2023-03-11T03:27:50.470Z,1.17
2023-03-11T03:30:17.327Z,0.80
2023-03-11T03:32:44.848Z,1.03
2023-03-11T03:35:15.101Z,0.90
2023-03-11T03:37:55.248Z,1.07
2023-03-11T03:40:22.972Z,0.70
2023-03-11T03:42:50.765Z,0.90
2023-03-11T03:45:17.990Z,0.80
2023-03-11T03:47:45.349Z,1.03
2023-03-11T03:50:13.365Z,0.90
2023-03-11T03:52:43.924Z,0.80
2023-03-11T03:55:11.410Z,0.70
2023-03-11T03:57:38.760Z,0.90
2023-03-11T04:00:10.677Z,0.80
2023-03-11T04:02:41.470Z,0.87
2023-03-11T04:05:16.688Z,0.60
2023-03-11T04:07:44.599Z,0.80
2023-03-11T04:10:14.277Z,0.80
2023-03-11T04:12:42.693Z,0.70
2023-03-11T04:15:10.192Z,0.60
2023-03-11T04:17:38.532Z,0.90
2023-03-11T04:20:10.354Z,1.00
2023-03-11T04:22:37.667Z,0.90
2023-03-11T04:25:05.589Z,0.70
2023-03-11T04:27:33.116Z,0.93
2023-03-11T04:30:01.274Z,0.47
2023-03-11T04:32:29.081Z,0.60
2023-03-11T04:34:56.462Z,0.60
2023-03-11T04:37:27.885Z,0.60
2023-03-11T04:39:54.723Z,0.50
2023-03-11T04:42:21.487Z,0.50
2023-03-11T04:44:48.745Z,0.67
2023-03-11T04:47:15.510Z,0.87
2023-03-11T04:49:43.016Z,0.70
2023-03-11T04:52:11.686Z,0.63
2023-03-11T04:54:38.560Z,0.60
2023-03-11T04:57:06.072Z,0.63
2023-03-11T04:59:33.507Z,0.60
2023-03-11T05:02:00.282Z,0.70
2023-03-11T05:04:27.181Z,0.60
2023-03-11T05:06:54.302Z,0.87
2023-03-11T05:09:24.202Z,0.63
2023-03-11T05:11:50.965Z,0.80
2023-03-11T05:14:19.311Z,0.60
2023-03-11T05:16:46.216Z,0.57
2023-03-11T05:19:31.862Z,0.90
2023-03-11T05:22:02.781Z,0.67
2023-03-11T05:24:30.133Z,0.50
2023-03-11T05:26:58.468Z,0.60
2023-03-11T05:29:25.939Z,0.90
2023-03-11T05:31:54.223Z,0.70
2023-03-11T05:34:21.468Z,0.70
2023-03-11T05:36:48.831Z,0.70
2023-03-11T05:39:16.106Z,0.50
2023-03-11T05:41:44.540Z,0.80
2023-03-11T05:44:11.961Z,0.70
2023-03-11T05:46:39.480Z,0.50
2023-03-11T05:49:07.062Z,0.73
2023-03-11T05:51:34.361Z,0.70
2023-03-11T05:54:01.466Z,0.60
2023-03-11T05:56:36.110Z,0.67
2023-03-11T05:59:03.471Z,0.67
2023-03-11T06:01:33.963Z,0.90
2023-03-11T06:04:00.751Z,0.97
2023-03-11T06:06:28.645Z,0.73
2023-03-11T06:08:56.080Z,0.80
2023-03-11T06:11:25.791Z,1.20
2023-03-11T06:13:57.243Z,0.80
2023-03-11T06:16:26.887Z,1.00
2023-03-11T06:19:00.666Z,0.83
2023-03-11T06:21:30.772Z,0.80
2023-03-11T06:23:57.939Z,1.07
2023-03-11T06:26:27.807Z,0.87
2023-03-11T06:28:54.676Z,0.73
2023-03-11T06:31:27.168Z,1.00
2023-03-11T06:34:06.491Z,0.80
2023-03-11T06:36:33.818Z,1.17
2023-03-11T06:39:00.563Z,0.90
2023-03-11T06:41:29.039Z,0.70
2023-03-11T06:43:59.753Z,0.80
2023-03-11T06:46:28.031Z,0.90
2023-03-11T06:48:57.916Z,1.10
2023-03-11T06:51:25.175Z,0.80
2023-03-11T06:53:53.743Z,1.10
2023-03-11T06:56:23.274Z,0.90
2023-03-11T06:59:00.869Z,1.33
2023-03-11T07:01:31.329Z,1.10
2023-03-11T07:04:00.526Z,0.80
2023-03-11T07:06:29.328Z,0.83
2023-03-11T07:09:04.424Z,0.90
2023-03-11T07:11:33.052Z,0.97
2023-03-11T07:14:06.796Z,1.00
2023-03-11T07:16:39.136Z,0.97
2023-03-11T07:19:12.352Z,0.80
2023-03-11T07:21:40.318Z,1.00
2023-03-11T07:24:07.523Z,1.07
2023-03-11T07:26:35.834Z,0.90
2023-03-11T07:29:02.617Z,0.60
2023-03-11T07:31:32.017Z,0.70
2023-03-11T07:34:01.044Z,1.80
2023-03-11T07:36:29.537Z,1.00
2023-03-11T07:39:04.450Z,0.77
2023-03-11T07:41:33.934Z,1.03
2023-03-11T07:44:03.001Z,1.10
2023-03-11T07:46:31.591Z,0.80
2023-03-11T07:48:59.564Z,0.87
2023-03-11T07:51:30.864Z,0.97
2023-03-11T07:53:59.923Z,1.10
2023-03-11T07:56:29.867Z,0.80
2023-03-11T07:58:59.882Z,1.03
2023-03-11T08:01:30.672Z,1.00
2023-03-11T08:03:59.068Z,1.30
2023-03-11T08:06:31.310Z,1.80
2023-03-11T08:09:00.673Z,0.80
2023-03-11T08:11:28.656Z,0.90
2023-03-11T08:13:57.861Z,0.90
2023-03-11T08:16:25.902Z,0.80
2023-03-11T08:18:53.613Z,0.90
2023-03-11T08:21:26.571Z,0.90
2023-03-11T08:23:59.120Z,1.03
2023-03-11T08:26:26.787Z,0.90
2023-03-11T08:28:55.337Z,1.17
2023-03-11T08:31:31.173Z,0.70
2023-03-11T08:34:01.409Z,0.90
2023-03-11T08:36:29.264Z,0.80
2023-03-11T08:38:56.627Z,0.73
2023-03-11T08:41:23.467Z,0.80
2023-03-11T08:43:52.310Z,0.80
2023-03-11T08:46:30.185Z,0.80
2023-03-11T08:49:01.035Z,0.90
2023-03-11T08:51:30.365Z,0.80
2023-03-11T08:53:57.656Z,0.93
2023-03-11T08:56:24.492Z,0.70
2023-03-11T08:58:51.846Z,0.70
2023-03-11T09:01:20.240Z,0.60
2023-03-11T09:03:47.072Z,0.83
2023-03-11T09:06:16.273Z,0.77
2023-03-11T09:08:44.534Z,1.00
2023-03-11T09:11:13.597Z,0.70
2023-03-11T09:13:42.726Z,1.00
2023-03-11T09:16:13.598Z,1.50
2023-03-11T09:18:41.090Z,0.80
2023-03-11T09:21:08.352Z,0.80
2023-03-11T09:23:35.265Z,0.90
2023-03-11T09:26:02.012Z,0.90
2023-03-11T09:28:28.745Z,1.07
2023-03-11T09:30:56.990Z,0.87
2023-03-11T09:33:24.112Z,0.90
2023-03-11T09:35:50.961Z,0.87
2023-03-11T09:38:17.717Z,0.80
2023-03-11T09:40:59.781Z,1.07
2023-03-11T09:43:55.456Z,0.70
2023-03-11T09:46:41.191Z,1.20
2023-03-11T09:49:23.537Z,0.83
2023-03-11T09:52:17.687Z,0.80
2023-03-11T09:54:51.652Z,0.80
2023-03-11T09:57:24.133Z,1.20
2023-03-11T09:59:51.338Z,0.80
2023-03-11T10:02:20.594Z,0.80
2023-03-11T10:05:03.468Z,0.80
2023-03-11T10:08:12.807Z,0.80
2023-03-11T10:10:49.176Z,0.80
2023-03-11T10:13:31.229Z,0.50
2023-03-11T10:16:10.133Z,0.57
2023-03-11T10:19:02.235Z,0.77
2023-03-11T10:21:30.254Z,0.80
2023-03-11T10:24:13.844Z,0.70
2023-03-11T10:26:58.008Z,0.70
2023-03-11T10:29:31.262Z,0.67
2023-03-11T10:32:13.116Z,0.67
2023-03-11T10:34:46.302Z,0.50
2023-03-11T10:37:28.975Z,0.68
2023-03-11T10:40:18.080Z,0.80
2023-03-11T10:42:47.504Z,0.60
2023-03-11T10:45:14.869Z,0.63
2023-03-11T10:47:42.506Z,0.88
2023-03-11T10:50:28.134Z,0.60
2023-03-11T10:53:24.501Z,0.50
2023-03-11T10:55:54.321Z,0.98
2023-03-11T10:58:27.209Z,0.50
2023-03-11T11:01:18.139Z,0.98
2023-03-11T11:03:50.879Z,0.50
2023-03-11T11:06:25.654Z,1.92
2023-03-11T11:09:14.549Z,0.75
2023-03-11T11:11:41.832Z,0.50
2023-03-11T11:14:10.373Z,0.98
2023-03-11T11:16:37.848Z,0.77
2023-03-11T11:19:16.198Z,0.70
2023-03-11T11:21:52.244Z,0.73
2023-03-11T11:24:24.611Z,0.90
2023-03-11T11:27:04.991Z,0.77
2023-03-11T11:29:32.708Z,0.50
2023-03-11T11:32:26.008Z,1.00
2023-03-11T11:34:59.211Z,0.70
2023-03-11T11:37:32.279Z,0.80
2023-03-11T11:40:17.194Z,0.60
2023-03-11T11:42:53.755Z,0.63
2023-03-11T11:45:34.628Z,0.50
2023-03-11T11:48:07.357Z,0.60
2023-03-11T11:50:43.373Z,0.75
2023-03-11T11:53:21.569Z,0.55
2023-03-11T11:55:52.601Z,0.60
2023-03-11T11:58:20.334Z,0.63
2023-03-11T12:00:58.237Z,0.70
2023-03-11T12:04:06.805Z,0.80
2023-03-11T12:06:48.472Z,0.60
2023-03-11T12:09:30.806Z,0.50
2023-03-11T12:12:08.788Z,0.80
2023-03-11T12:15:25.054Z,0.85
2023-03-11T12:17:59.514Z,0.70
2023-03-11T12:20:47.601Z,0.77
2023-03-11T12:23:37.897Z,0.80
2023-03-11T12:26:04.670Z,0.65
2023-03-11T12:29:19.855Z,0.70
2023-03-11T12:31:48.825Z,7.38
2023-03-11T12:34:19.899Z,0.80
2023-03-11T12:36:48.912Z,0.60
2023-03-11T12:39:34.250Z,0.70
2023-03-11T12:42:16.042Z,0.50
2023-03-11T12:44:45.579Z,0.90
2023-03-11T12:47:12.293Z,0.60
2023-03-11T12:49:44.908Z,0.70
2023-03-11T12:52:12.027Z,0.45
2023-03-11T12:54:44.229Z,0.70
2023-03-11T12:57:18.067Z,0.63
2023-03-11T13:00:25.441Z,0.70
2023-03-11T13:03:27.247Z,0.77
2023-03-11T13:06:21.199Z,0.60
2023-03-11T13:08:54.860Z,0.50
2023-03-11T13:11:27.457Z,0.60
2023-03-11T13:14:09.568Z,0.60
2023-03-11T13:16:37.685Z,2.17
2023-03-11T13:19:26.389Z,0.83
2023-03-11T13:21:54.478Z,1.40
2023-03-11T13:24:22.177Z,1.30
2023-03-11T13:27:07.093Z,0.70
2023-03-11T13:29:46.716Z,0.40
2023-03-11T13:32:50.885Z,0.53
2023-03-11T13:35:59.270Z,0.67
2023-03-11T13:38:50.101Z,0.50
2023-03-11T13:41:22.627Z,0.70
2023-03-11T13:43:51.377Z,0.70
2023-03-11T13:46:30.683Z,0.60
2023-03-11T13:49:06.614Z,0.60
2023-03-11T13:51:45.656Z,0.63
2023-03-11T13:54:20.196Z,0.70
2023-03-11T13:56:54.046Z,0.50
2023-03-11T13:59:28.432Z,0.60
2023-03-11T14:02:01.811Z,0.50
2023-03-11T14:04:36.139Z,0.70
2023-03-11T14:07:15.220Z,0.50
2023-03-11T14:09:42.333Z,0.60
2023-03-11T14:12:11.048Z,0.60
2023-03-11T14:15:01.139Z,0.60
2023-03-11T14:17:28.145Z,0.70
2023-03-11T14:20:18.828Z,0.87
2023-03-11T14:22:47.869Z,0.80
2023-03-11T14:25:20.347Z,0.50
2023-03-11T14:28:01.139Z,0.80
2023-03-11T14:30:32.406Z,0.70
2023-03-11T14:33:03.974Z,0.60
2023-03-11T14:35:34.142Z,0.80
2023-03-11T14:38:01.284Z,0.70
2023-03-11T14:40:34.188Z,0.70
2023-03-11T14:43:04.117Z,0.90
2023-03-11T14:45:34.212Z,0.93
2023-03-11T14:48:12.338Z,0.90
2023-03-11T14:50:39.105Z,2.03
2023-03-11T14:53:14.767Z,0.90
2023-03-11T14:55:56.270Z,0.70
2023-03-11T14:58:46.430Z,0.80
2023-03-11T15:01:26.702Z,0.70
2023-03-11T15:04:08.637Z,0.80
2023-03-11T15:06:43.077Z,1.00
2023-03-11T15:09:18.174Z,0.73
2023-03-11T15:11:52.295Z,1.10
2023-03-11T15:14:26.753Z,0.90
2023-03-11T15:16:55.145Z,0.70
2023-03-11T15:19:27.743Z,0.70
2023-03-11T15:21:59.690Z,0.90
2023-03-11T15:24:30.589Z,0.90
2023-03-11T15:27:04.639Z,1.00
2023-03-11T15:29:34.221Z,1.20
2023-03-11T15:32:47.250Z,1.10
2023-03-11T15:35:19.533Z,0.70
2023-03-11T15:37:50.870Z,1.20
2023-03-11T15:40:17.713Z,1.00
2023-03-11T15:42:45.232Z,1.07
2023-03-11T15:45:20.885Z,1.07
2023-03-11T15:47:50.776Z,0.93
2023-03-11T15:50:24.755Z,0.90
2023-03-11T15:52:57.033Z,0.97
2023-03-11T15:55:26.619Z,1.10
2023-03-11T15:58:00.353Z,1.10
2023-03-11T16:00:27.229Z,1.20
2023-03-11T16:02:54.697Z,1.20
2023-03-11T16:05:23.471Z,1.90
2023-03-11T16:07:50.998Z,1.77
2023-03-11T16:10:20.964Z,1.80
2023-03-11T16:12:48.445Z,1.40
2023-03-11T16:15:25.005Z,1.37
2023-03-11T16:17:53.366Z,1.10
2023-03-11T16:20:22.463Z,0.90
2023-03-11T16:22:53.799Z,0.97
2023-03-11T16:25:26.124Z,1.30
2023-03-11T16:27:55.002Z,1.10
2023-03-11T16:30:23.000Z,1.37
2023-03-11T16:32:50.407Z,1.20
2023-03-11T16:35:17.817Z,1.73
2023-03-11T16:37:44.885Z,1.33
2023-03-11T16:40:15.385Z,1.70
2023-03-11T16:42:43.775Z,1.30
2023-03-11T16:45:13.183Z,1.30
2023-03-11T16:47:39.923Z,1.13
2023-03-11T16:50:08.130Z,1.00
2023-03-11T16:52:35.389Z,1.17
2023-03-11T16:55:02.414Z,1.60
2023-03-11T16:57:29.524Z,1.47
2023-03-11T16:59:56.330Z,1.73
2023-03-11T17:02:24.572Z,1.43
2023-03-11T17:04:52.118Z,1.70
2023-03-11T17:07:19.683Z,1.40
2023-03-11T17:09:47.332Z,1.40
2023-03-11T17:12:15.862Z,1.60
2023-03-11T17:14:42.781Z,2.10
2023-03-11T17:17:09.607Z,1.87
2023-03-11T17:19:37.072Z,1.43
2023-03-11T17:22:04.708Z,1.70
2023-03-11T17:24:31.566Z,1.30
2023-03-11T17:26:58.552Z,1.17
2023-03-11T17:29:25.345Z,1.33
2023-03-11T17:31:52.558Z,1.40
2023-03-11T17:34:19.817Z,1.50
2023-03-11T17:36:46.755Z,1.70
2023-03-11T17:39:13.497Z,1.83
2023-03-11T17:41:40.190Z,1.50
2023-03-11T17:44:07.344Z,1.50
2023-03-11T17:46:36.831Z,1.57
2023-03-11T17:49:03.731Z,1.57
2023-03-11T17:51:31.113Z,1.53
2023-03-11T17:53:58.035Z,1.70
2023-03-11T17:56:24.842Z,2.70
2023-03-11T17:58:52.168Z,2.20
2023-03-11T18:01:23.064Z,1.60
2023-03-11T18:03:51.179Z,1.87
2023-03-11T18:06:19.233Z,1.60
2023-03-11T18:08:46.601Z,1.50
2023-03-11T18:11:18.763Z,1.40
2023-03-11T18:13:46.704Z,1.57
2023-03-11T18:16:22.294Z,1.57
2023-03-11T18:18:49.681Z,1.53
2023-03-11T18:21:18.164Z,1.23
2023-03-11T18:23:45.645Z,1.30
2023-03-11T18:26:17.327Z,1.40
2023-03-11T18:28:44.349Z,1.40
2023-03-11T18:31:20.198Z,1.63
2023-03-11T18:33:50.355Z,1.80
2023-03-11T18:36:23.234Z,1.80
2023-03-11T18:38:52.745Z,2.30
2023-03-11T18:41:20.463Z,2.17
2023-03-11T18:43:47.458Z,2.57
2023-03-11T18:46:15.996Z,2.40
2023-03-11T18:48:42.911Z,3.37
2023-03-11T18:51:09.717Z,2.33
2023-03-11T18:53:38.534Z,2.80
2023-03-11T18:56:08.716Z,2.23
2023-03-11T18:58:35.830Z,2.43
2023-03-11T19:01:12.531Z,2.80
2023-03-11T19:03:39.683Z,1.80
2023-03-11T19:06:11.550Z,1.60
2023-03-11T19:08:38.690Z,1.70
2023-03-11T19:11:10.581Z,1.50
2023-03-11T19:13:46.933Z,1.50
2023-03-11T19:16:17.596Z,1.50
2023-03-11T19:18:45.206Z,1.83
2023-03-11T19:21:13.648Z,1.57
2023-03-11T19:23:40.628Z,1.70
2023-03-11T19:26:08.639Z,1.67
2023-03-11T19:28:35.626Z,1.37
2023-03-11T19:31:03.664Z,1.80
2023-03-11T19:33:31.055Z,1.50
2023-03-11T19:36:01.501Z,1.40
2023-03-11T19:38:29.370Z,1.47
2023-03-11T19:41:23.438Z,1.40
2023-03-11T19:43:50.237Z,1.83
2023-03-11T19:46:21.359Z,1.50
2023-03-11T19:48:49.433Z,1.30
2023-03-11T19:51:17.419Z,1.53
2023-03-11T19:53:44.307Z,1.70
2023-03-11T19:56:11.299Z,2.10
2023-03-11T19:58:40.926Z,1.43
2023-03-11T20:01:15.349Z,1.30
2023-03-11T20:03:43.061Z,1.70
2023-03-11T20:06:10.136Z,1.60
2023-03-11T20:08:38.810Z,1.50
2023-03-11T20:11:06.785Z,1.30
2023-03-11T20:13:36.728Z,1.53
2023-03-11T20:16:09.455Z,1.73
2023-03-11T20:18:36.818Z,1.50
2023-03-11T20:21:08.025Z,1.40
2023-03-11T20:23:35.232Z,3.23
2023-03-11T20:26:06.902Z,2.90
2023-03-11T20:28:34.681Z,9.27
2023-03-11T20:31:09.428Z,3.20
2023-03-11T20:33:38.067Z,1.87
2023-03-11T20:36:07.987Z,2.23
2023-03-11T20:38:35.465Z,2.90
2023-03-11T20:41:05.900Z,3.43
2023-03-11T20:43:34.869Z,4.50
2023-03-11T20:46:01.986Z,4.00
2023-03-11T20:48:29.413Z,5.10
2023-03-11T20:51:25.227Z,4.20
2023-03-11T20:53:54.336Z,3.33
2023-03-11T20:56:24.693Z,3.10
2023-03-11T20:58:55.940Z,2.50
2023-03-11T21:01:29.519Z,2.93
2023-03-11T21:03:59.128Z,2.27
2023-03-11T21:06:29.088Z,2.77
2023-03-11T21:08:59.033Z,2.27
2023-03-11T21:11:26.876Z,2.70
2023-03-11T21:13:55.202Z,2.43
2023-03-11T21:16:24.631Z,2.40
2023-03-11T21:18:51.519Z,2.50
2023-03-11T21:21:19.730Z,2.57
2023-03-11T21:23:48.022Z,2.17
2023-03-11T21:26:16.698Z,2.40
2023-03-11T21:28:46.953Z,2.17
2023-03-11T21:31:19.954Z,2.50
2023-03-11T21:33:48.229Z,2.10
2023-03-11T21:36:16.270Z,2.03
2023-03-11T21:38:43.156Z,2.27
2023-03-11T21:41:19.292Z,2.13
2023-03-11T21:43:46.911Z,2.33
2023-03-11T21:46:17.025Z,2.10
2023-03-11T21:48:44.058Z,2.10
2023-03-11T21:51:11.115Z,2.37
2023-03-11T21:53:39.753Z,2.30
2023-03-11T21:56:09.590Z,2.30
2023-03-11T21:58:36.886Z,2.57
2023-03-11T22:01:09.501Z,2.50
2023-03-11T22:03:39.766Z,2.67
2023-03-11T22:06:10.615Z,2.07
2023-03-11T22:08:38.696Z,2.30
2023-03-11T22:11:12.899Z,2.47
2023-03-11T22:13:40.448Z,2.77
2023-03-11T22:16:08.301Z,2.17
2023-03-11T22:18:35.666Z,2.23
2023-03-11T22:21:02.949Z,2.50
2023-03-11T22:23:30.001Z,2.13
2023-03-11T22:25:57.040Z,2.23
2023-03-11T22:28:25.150Z,2.60
2023-03-11T22:30:51.976Z,2.50
2023-03-11T22:33:18.764Z,2.50
2023-03-11T22:35:56.681Z,2.43
2023-03-11T22:38:24.317Z,2.10
2023-03-11T22:40:51.894Z,1.97
2023-03-11T22:43:18.820Z,2.40
2023-03-11T22:45:46.260Z,2.40
2023-03-11T22:48:13.191Z,2.40
2023-03-11T22:50:42.289Z,2.10
2023-03-11T22:53:11.258Z,2.37
2023-03-11T22:55:44.657Z,2.33
2023-03-11T22:58:12.391Z,2.00
2023-03-11T23:00:40.557Z,2.00
2023-03-11T23:03:07.382Z,2.80
2023-03-11T23:05:41.708Z,1.90
2023-03-11T23:08:12.053Z,2.67
2023-03-11T23:10:46.331Z,2.57
2023-03-11T23:13:13.742Z,2.60
2023-03-11T23:15:43.546Z,2.33
2023-03-11T23:18:11.620Z,2.60
2023-03-11T23:20:41.358Z,2.23
2023-03-11T23:23:09.999Z,2.10
2023-03-11T23:25:38.849Z,2.20
2023-03-11T23:28:06.667Z,2.30
2023-03-11T23:30:33.957Z,2.77
2023-03-11T23:33:02.940Z,2.07
2023-03-11T23:35:30.980Z,1.80
2023-03-11T23:37:57.897Z,2.10
2023-03-11T23:40:25.731Z,2.20
2023-03-11T23:42:52.529Z,2.30
2023-03-11T23:45:19.278Z,2.00
2023-03-11T23:47:46.020Z,2.20
2023-03-11T23:50:12.769Z,2.20
2023-03-11T23:52:40.157Z,2.07
2023-03-11T23:55:07.595Z,2.40
2023-03-11T23:57:35.988Z,2.00
